sensor_id;sensor_type;location;lat;lon;timestamp;P1;durP1;ratioP1;P2;durP2;ratioP2
54979;SDS011;44101;50.462;30.432;2022-08-06T00:01:41;20.13;;;14.32;;
54979;SDS011;44101;50.462;30.432;2022-08-06T00:04:07;17.90;;;14.02;;
54979;SDS011;44101;50.462;30.432;2022-08-06T00:06:32;16.92;;;14.07;;
54979;SDS011;44101;50.462;30.432;2022-08-06T00:08:58;17.48;;;14.52;;
54979;SDS011;44101;50.462;30.432;2022-08-06T00:11:24;20.23;;;12.77;;
54979;SDS011;44101;50.462;30.432;2022-08-06T00:13:49;14.90;;;12.43;;
54979;SDS011;44101;50.462;30.432;2022-08-06T00:16:15;16.58;;;12.85;;
54979;SDS011;44101;50.462;30.432;2022-08-06T00:18:41;16.60;;;13.13;;
54979;SDS011;44101;50.462;30.432;2022-08-06T00:21:07;16.45;;;12.90;;
54979;SDS011;44101;50.462;30.432;2022-08-06T00:23:32;14.13;;;12.55;;
54979;SDS011;44101;50.462;30.432;2022-08-06T00:25:58;13.55;;;11.93;;
54979;SDS011;44101;50.462;30.432;2022-08-06T00:28:24;15.77;;;13.27;;
54979;SDS011;44101;50.462;30.432;2022-08-06T00:30:50;16.85;;;12.95;;
54979;SDS011;44101;50.462;30.432;2022-08-06T00:33:16;17.95;;;13.35;;
54979;SDS011;44101;50.462;30.432;2022-08-06T00:35:42;17.33;;;12.23;;
54979;SDS011;44101;50.462;30.432;2022-08-06T00:38:08;14.73;;;11.73;;
54979;SDS011;44101;50.462;30.432;2022-08-06T00:40:33;17.98;;;12.90;;
54979;SDS011;44101;50.462;30.432;2022-08-06T00:42:59;16.20;;;13.32;;
54979;SDS011;44101;50.462;30.432;2022-08-06T00:45:27;14.55;;;12.32;;
54979;SDS011;44101;50.462;30.432;2022-08-06T00:47:56;15.05;;;12.57;;
54979;SDS011;44101;50.462;30.432;2022-08-06T00:50:22;14.68;;;12.88;;
54979;SDS011;44101;50.462;30.432;2022-08-06T00:52:47;15.90;;;12.13;;
54979;SDS011;44101;50.462;30.432;2022-08-06T00:55:13;13.65;;;11.85;;
54979;SDS011;44101;50.462;30.432;2022-08-06T00:57:39;16.52;;;12.63;;
54979;SDS011;44101;50.462;30.432;2022-08-06T01:00:05;16.45;;;11.77;;
54979;SDS011;44101;50.462;30.432;2022-08-06T01:02:31;12.88;;;11.63;;
54979;SDS011;44101;50.462;30.432;2022-08-06T01:04:58;14.77;;;12.68;;
54979;SDS011;44101;50.462;30.432;2022-08-06T01:07:24;14.23;;;11.50;;
54979;SDS011;44101;50.462;30.432;2022-08-06T01:09:50;14.40;;;11.50;;
54979;SDS011;44101;50.462;30.432;2022-08-06T01:12:16;18.13;;;11.38;;
54979;SDS011;44101;50.462;30.432;2022-08-06T01:14:42;14.68;;;11.75;;
54979;SDS011;44101;50.462;30.432;2022-08-06T01:17:14;14.65;;;13.10;;
54979;SDS011;44101;50.462;30.432;2022-08-06T01:25:36;11.73;;;10.55;;
54979;SDS011;44101;50.462;30.432;2022-08-06T01:30:59;11.10;;;9.95;;
54979;SDS011;44101;50.462;30.432;2022-08-06T01:33:40;13.93;;;10.50;;
54979;SDS011;44101;50.462;30.432;2022-08-06T01:36:11;11.05;;;9.80;;
54979;SDS011;44101;50.462;30.432;2022-08-06T01:38:41;9.25;;;8.30;;
54979;SDS011;44101;50.462;30.432;2022-08-06T01:41:10;9.75;;;8.75;;
54979;SDS011;44101;50.462;30.432;2022-08-06T01:43:38;10.60;;;9.30;;
54979;SDS011;44101;50.462;30.432;2022-08-06T01:46:06;10.30;;;9.07;;
54979;SDS011;44101;50.462;30.432;2022-08-06T01:48:35;10.93;;;9.30;;
54979;SDS011;44101;50.462;30.432;2022-08-06T01:51:03;16.42;;;10.07;;
54979;SDS011;44101;50.462;30.432;2022-08-06T01:53:34;11.60;;;9.52;;
54979;SDS011;44101;50.462;30.432;2022-08-06T01:56:02;12.30;;;10.10;;
54979;SDS011;44101;50.462;30.432;2022-08-06T01:58:34;11.93;;;10.73;;
54979;SDS011;44101;50.462;30.432;2022-08-06T02:01:06;12.30;;;11.00;;
54979;SDS011;44101;50.462;30.432;2022-08-06T02:03:41;12.98;;;11.57;;
54979;SDS011;44101;50.462;30.432;2022-08-06T02:06:11;14.63;;;11.75;;
54979;SDS011;44101;50.462;30.432;2022-08-06T02:08:39;19.80;;;12.32;;
54979;SDS011;44101;50.462;30.432;2022-08-06T02:11:09;11.98;;;10.80;;
54979;SDS011;44101;50.462;30.432;2022-08-06T02:13:35;13.10;;;11.18;;
54979;SDS011;44101;50.462;30.432;2022-08-06T02:16:04;12.50;;;10.50;;
54979;SDS011;44101;50.462;30.432;2022-08-06T02:18:33;11.95;;;10.57;;
54979;SDS011;44101;50.462;30.432;2022-08-06T02:21:10;10.38;;;9.38;;
54979;SDS011;44101;50.462;30.432;2022-08-06T02:23:40;13.98;;;9.13;;
54979;SDS011;44101;50.462;30.432;2022-08-06T02:26:06;10.60;;;9.45;;
54979;SDS011;44101;50.462;30.432;2022-08-06T02:28:34;12.48;;;8.60;;
54979;SDS011;44101;50.462;30.432;2022-08-06T02:31:02;9.82;;;8.88;;
54979;SDS011;44101;50.462;30.432;2022-08-06T02:33:28;9.75;;;8.85;;
54979;SDS011;44101;50.462;30.432;2022-08-06T02:35:59;9.70;;;8.65;;
54979;SDS011;44101;50.462;30.432;2022-08-06T02:38:31;12.35;;;8.85;;
54979;SDS011;44101;50.462;30.432;2022-08-06T02:41:05;14.10;;;9.40;;
54979;SDS011;44101;50.462;30.432;2022-08-06T02:43:40;10.88;;;9.10;;
54979;SDS011;44101;50.462;30.432;2022-08-06T02:46:16;12.35;;;9.50;;
54979;SDS011;44101;50.462;30.432;2022-08-06T02:48:54;11.32;;;9.73;;
54979;SDS011;44101;50.462;30.432;2022-08-06T02:51:38;11.55;;;10.05;;
54979;SDS011;44101;50.462;30.432;2022-08-06T02:54:14;12.85;;;9.23;;
54979;SDS011;44101;50.462;30.432;2022-08-06T02:56:45;10.82;;;8.95;;
54979;SDS011;44101;50.462;30.432;2022-08-06T02:59:13;13.88;;;11.93;;
54979;SDS011;44101;50.462;30.432;2022-08-06T03:01:45;23.85;;;18.13;;
54979;SDS011;44101;50.462;30.432;2022-08-06T03:04:16;18.80;;;15.07;;
54979;SDS011;44101;50.462;30.432;2022-08-06T03:06:45;13.68;;;12.18;;
54979;SDS011;44101;50.462;30.432;2022-08-06T03:09:11;12.63;;;10.95;;
54979;SDS011;44101;50.462;30.432;2022-08-06T03:11:40;12.15;;;10.85;;
54979;SDS011;44101;50.462;30.432;2022-08-06T03:14:06;12.52;;;10.45;;
54979;SDS011;44101;50.462;30.432;2022-08-06T03:16:34;15.55;;;10.23;;
54979;SDS011;44101;50.462;30.432;2022-08-06T03:19:02;13.63;;;11.30;;
54979;SDS011;44101;50.462;30.432;2022-08-06T03:21:29;11.93;;;10.70;;
54979;SDS011;44101;50.462;30.432;2022-08-06T03:23:57;14.73;;;11.38;;
54979;SDS011;44101;50.462;30.432;2022-08-06T03:26:25;14.00;;;11.02;;
54979;SDS011;44101;50.462;30.432;2022-08-06T03:28:52;15.70;;;11.07;;
54979;SDS011;44101;50.462;30.432;2022-08-06T03:31:20;10.38;;;9.27;;
54979;SDS011;44101;50.462;30.432;2022-08-06T03:33:51;18.75;;;11.68;;
54979;SDS011;44101;50.462;30.432;2022-08-06T03:36:17;11.43;;;10.07;;
54979;SDS011;44101;50.462;30.432;2022-08-06T03:38:46;12.82;;;11.32;;
54979;SDS011;44101;50.462;30.432;2022-08-06T03:41:18;12.15;;;10.40;;
54979;SDS011;44101;50.462;30.432;2022-08-06T03:43:44;13.57;;;10.55;;
54979;SDS011;44101;50.462;30.432;2022-08-06T03:46:10;11.65;;;10.45;;
54979;SDS011;44101;50.462;30.432;2022-08-06T03:48:39;12.52;;;11.10;;
54979;SDS011;44101;50.462;30.432;2022-08-06T03:51:14;16.38;;;11.02;;
54979;SDS011;44101;50.462;30.432;2022-08-06T03:53:42;12.15;;;10.82;;
54979;SDS011;44101;50.462;30.432;2022-08-06T03:56:11;15.40;;;10.18;;
54979;SDS011;44101;50.462;30.432;2022-08-06T03:58:41;12.40;;;10.90;;
54979;SDS011;44101;50.462;30.432;2022-08-06T04:01:11;12.23;;;10.90;;
54979;SDS011;44101;50.462;30.432;2022-08-06T04:03:39;17.60;;;11.57;;
54979;SDS011;44101;50.462;30.432;2022-08-06T04:06:07;12.93;;;11.68;;
54979;SDS011;44101;50.462;30.432;2022-08-06T04:08:37;13.60;;;11.60;;
54979;SDS011;44101;50.462;30.432;2022-08-06T04:11:04;12.35;;;10.77;;
54979;SDS011;44101;50.462;30.432;2022-08-06T04:13:31;15.27;;;11.10;;
54979;SDS011;44101;50.462;30.432;2022-08-06T04:15:58;12.68;;;10.93;;
54979;SDS011;44101;50.462;30.432;2022-08-06T04:18:25;13.07;;;10.10;;
54979;SDS011;44101;50.462;30.432;2022-08-06T04:20:54;13.88;;;10.55;;
54979;SDS011;44101;50.462;30.432;2022-08-06T04:23:22;11.55;;;10.05;;
54979;SDS011;44101;50.462;30.432;2022-08-06T04:25:51;13.40;;;10.30;;
54979;SDS011;44101;50.462;30.432;2022-08-06T04:28:18;10.85;;;9.75;;
54979;SDS011;44101;50.462;30.432;2022-08-06T04:30:45;12.18;;;9.75;;
54979;SDS011;44101;50.462;30.432;2022-08-06T04:33:14;11.20;;;9.70;;
54979;SDS011;44101;50.462;30.432;2022-08-06T04:35:43;10.25;;;9.10;;
54979;SDS011;44101;50.462;30.432;2022-08-06T04:38:10;11.70;;;9.48;;
54979;SDS011;44101;50.462;30.432;2022-08-06T04:40:38;11.43;;;9.52;;
54979;SDS011;44101;50.462;30.432;2022-08-06T04:43:04;10.93;;;9.88;;
54979;SDS011;44101;50.462;30.432;2022-08-06T04:45:32;13.00;;;10.50;;
54979;SDS011;44101;50.462;30.432;2022-08-06T04:47:59;14.45;;;10.82;;
54979;SDS011;44101;50.462;30.432;2022-08-06T04:50:26;12.75;;;10.27;;
54979;SDS011;44101;50.462;30.432;2022-08-06T04:52:52;11.65;;;10.45;;
54979;SDS011;44101;50.462;30.432;2022-08-06T04:55:19;14.65;;;10.15;;
54979;SDS011;44101;50.462;30.432;2022-08-06T04:57:45;12.00;;;10.32;;
54979;SDS011;44101;50.462;30.432;2022-08-06T05:00:11;11.43;;;10.23;;
54979;SDS011;44101;50.462;30.432;2022-08-06T05:02:37;15.02;;;10.55;;
54979;SDS011;44101;50.462;30.432;2022-08-06T05:05:04;12.00;;;10.00;;
54979;SDS011;44101;50.462;30.432;2022-08-06T05:07:32;13.93;;;9.98;;
54979;SDS011;44101;50.462;30.432;2022-08-06T05:10:00;11.88;;;10.05;;
54979;SDS011;44101;50.462;30.432;2022-08-06T05:12:31;13.23;;;10.55;;
54979;SDS011;44101;50.462;30.432;2022-08-06T05:15:15;11.35;;;10.10;;
54979;SDS011;44101;50.462;30.432;2022-08-06T05:18:08;12.85;;;10.40;;
54979;SDS011;44101;50.462;30.432;2022-08-06T05:20:38;12.52;;;10.85;;
54979;SDS011;44101;50.462;30.432;2022-08-06T05:23:17;13.30;;;10.02;;
54979;SDS011;44101;50.462;30.432;2022-08-06T05:25:46;16.67;;;10.00;;
54979;SDS011;44101;50.462;30.432;2022-08-06T05:28:13;13.43;;;9.68;;
54979;SDS011;44101;50.462;30.432;2022-08-06T05:30:42;11.00;;;9.90;;
54979;SDS011;44101;50.462;30.432;2022-08-06T05:33:09;10.48;;;8.95;;
54979;SDS011;44101;50.462;30.432;2022-08-06T05:35:35;12.05;;;10.23;;
54979;SDS011;44101;50.462;30.432;2022-08-06T05:38:01;11.07;;;9.20;;
54979;SDS011;44101;50.462;30.432;2022-08-06T05:40:26;11.50;;;9.13;;
54979;SDS011;44101;50.462;30.432;2022-08-06T05:42:59;11.13;;;8.90;;
54979;SDS011;44101;50.462;30.432;2022-08-06T05:45:25;13.70;;;7.53;;
54979;SDS011;44101;50.462;30.432;2022-08-06T05:47:51;8.38;;;7.45;;
54979;SDS011;44101;50.462;30.432;2022-08-06T05:50:20;8.75;;;7.38;;
54979;SDS011;44101;50.462;30.432;2022-08-06T05:52:53;8.90;;;7.25;;
54979;SDS011;44101;50.462;30.432;2022-08-06T05:55:25;8.35;;;6.57;;
54979;SDS011;44101;50.462;30.432;2022-08-06T05:57:56;9.32;;;7.18;;
54979;SDS011;44101;50.462;30.432;2022-08-06T06:00:25;8.65;;;7.50;;
54979;SDS011;44101;50.462;30.432;2022-08-06T06:02:54;7.85;;;7.05;;
54979;SDS011;44101;50.462;30.432;2022-08-06T06:05:23;11.50;;;7.45;;
54979;SDS011;44101;50.462;30.432;2022-08-06T06:07:50;9.10;;;6.70;;
54979;SDS011;44101;50.462;30.432;2022-08-06T06:10:17;9.68;;;6.55;;
54979;SDS011;44101;50.462;30.432;2022-08-06T06:12:43;11.00;;;6.72;;
54979;SDS011;44101;50.462;30.432;2022-08-06T06:15:09;8.68;;;6.63;;
54979;SDS011;44101;50.462;30.432;2022-08-06T06:23:19;10.45;;;9.35;;
54979;SDS011;44101;50.462;30.432;2022-08-06T06:26:02;9.63;;;8.32;;
54979;SDS011;44101;50.462;30.432;2022-08-06T06:28:51;12.07;;;8.60;;
54979;SDS011;44101;50.462;30.432;2022-08-06T06:37:09;9.98;;;8.98;;
54979;SDS011;44101;50.462;30.432;2022-08-06T06:39:56;12.13;;;9.80;;
54979;SDS011;44101;50.462;30.432;2022-08-06T06:42:33;15.82;;;10.13;;
54979;SDS011;44101;50.462;30.432;2022-08-06T06:47:52;14.95;;;10.25;;
54979;SDS011;44101;50.462;30.432;2022-08-06T06:50:29;11.50;;;10.18;;
54979;SDS011;44101;50.462;30.432;2022-08-06T06:53:00;10.65;;;9.63;;
54979;SDS011;44101;50.462;30.432;2022-08-06T06:55:29;10.70;;;9.57;;
54979;SDS011;44101;50.462;30.432;2022-08-06T06:58:04;12.75;;;9.73;;
54979;SDS011;44101;50.462;30.432;2022-08-06T07:00:34;15.48;;;10.32;;
54979;SDS011;44101;50.462;30.432;2022-08-06T07:03:00;13.18;;;9.93;;
54979;SDS011;44101;50.462;30.432;2022-08-06T07:05:29;13.20;;;10.02;;
54979;SDS011;44101;50.462;30.432;2022-08-06T07:07:56;13.02;;;9.82;;
54979;SDS011;44101;50.462;30.432;2022-08-06T07:10:24;18.92;;;10.07;;
54979;SDS011;44101;50.462;30.432;2022-08-06T07:12:51;11.68;;;10.07;;
54979;SDS011;44101;50.462;30.432;2022-08-06T07:15:19;10.52;;;9.48;;
54979;SDS011;44101;50.462;30.432;2022-08-06T07:17:47;12.15;;;9.23;;
54979;SDS011;44101;50.462;30.432;2022-08-06T07:20:21;13.13;;;9.05;;
54979;SDS011;44101;50.462;30.432;2022-08-06T07:22:50;10.20;;;9.07;;
54979;SDS011;44101;50.462;30.432;2022-08-06T07:25:17;8.88;;;8.07;;
54979;SDS011;44101;50.462;30.432;2022-08-06T07:27:45;11.05;;;8.90;;
54979;SDS011;44101;50.462;30.432;2022-08-06T07:30:14;12.80;;;8.30;;
54979;SDS011;44101;50.462;30.432;2022-08-06T07:32:42;13.02;;;9.10;;
54979;SDS011;44101;50.462;30.432;2022-08-06T07:35:09;12.60;;;9.15;;
54979;SDS011;44101;50.462;30.432;2022-08-06T07:37:37;17.52;;;10.07;;
54979;SDS011;44101;50.462;30.432;2022-08-06T07:40:09;14.15;;;9.07;;
54979;SDS011;44101;50.462;30.432;2022-08-06T07:42:41;11.02;;;9.50;;
54979;SDS011;44101;50.462;30.432;2022-08-06T07:45:09;9.45;;;8.55;;
54979;SDS011;44101;50.462;30.432;2022-08-06T07:47:39;10.52;;;9.32;;
54979;SDS011;44101;50.462;30.432;2022-08-06T07:50:06;10.57;;;9.32;;
54979;SDS011;44101;50.462;30.432;2022-08-06T07:52:38;14.43;;;8.47;;
54979;SDS011;44101;50.462;30.432;2022-08-06T07:55:06;14.55;;;8.18;;
54979;SDS011;44101;50.462;30.432;2022-08-06T07:57:35;9.15;;;7.93;;
54979;SDS011;44101;50.462;30.432;2022-08-06T08:00:03;10.20;;;8.18;;
54979;SDS011;44101;50.462;30.432;2022-08-06T08:02:37;11.73;;;8.07;;
54979;SDS011;44101;50.462;30.432;2022-08-06T08:05:03;11.70;;;7.80;;
54979;SDS011;44101;50.462;30.432;2022-08-06T08:07:48;11.65;;;7.28;;
54979;SDS011;44101;50.462;30.432;2022-08-06T08:10:14;8.35;;;7.55;;
54979;SDS011;44101;50.462;30.432;2022-08-06T08:12:42;10.88;;;7.93;;
54979;SDS011;44101;50.462;30.432;2022-08-06T08:15:09;11.75;;;8.88;;
54979;SDS011;44101;50.462;30.432;2022-08-06T08:17:35;9.18;;;8.10;;
54979;SDS011;44101;50.462;30.432;2022-08-06T08:20:10;9.98;;;8.90;;
54979;SDS011;44101;50.462;30.432;2022-08-06T08:22:38;13.55;;;9.15;;
54979;SDS011;44101;50.462;30.432;2022-08-06T08:25:04;10.63;;;9.52;;
54979;SDS011;44101;50.462;30.432;2022-08-06T08:27:30;10.68;;;9.10;;
54979;SDS011;44101;50.462;30.432;2022-08-06T08:29:55;11.85;;;9.15;;
54979;SDS011;44101;50.462;30.432;2022-08-06T08:32:21;9.65;;;8.68;;
54979;SDS011;44101;50.462;30.432;2022-08-06T08:34:47;12.70;;;9.65;;
54979;SDS011;44101;50.462;30.432;2022-08-06T08:37:13;11.45;;;9.10;;
54979;SDS011;44101;50.462;30.432;2022-08-06T08:39:38;13.65;;;9.00;;
54979;SDS011;44101;50.462;30.432;2022-08-06T08:42:09;11.20;;;9.23;;
54979;SDS011;44101;50.462;30.432;2022-08-06T08:44:39;14.38;;;10.25;;
54979;SDS011;44101;50.462;30.432;2022-08-06T08:47:06;9.25;;;8.02;;
54979;SDS011;44101;50.462;30.432;2022-08-06T08:49:35;9.77;;;8.77;;
54979;SDS011;44101;50.462;30.432;2022-08-06T08:52:07;8.85;;;7.95;;
54979;SDS011;44101;50.462;30.432;2022-08-06T08:54:37;10.80;;;8.38;;
54979;SDS011;44101;50.462;30.432;2022-08-06T08:57:07;9.43;;;8.20;;
54979;SDS011;44101;50.462;30.432;2022-08-06T08:59:37;10.07;;;8.10;;
54979;SDS011;44101;50.462;30.432;2022-08-06T09:02:05;9.07;;;7.20;;
54979;SDS011;44101;50.462;30.432;2022-08-06T09:04:34;10.90;;;6.43;;
54979;SDS011;44101;50.462;30.432;2022-08-06T09:07:01;7.13;;;6.38;;
54979;SDS011;44101;50.462;30.432;2022-08-06T09:09:27;8.13;;;6.60;;
54979;SDS011;44101;50.462;30.432;2022-08-06T09:11:56;6.63;;;6.03;;
54979;SDS011;44101;50.462;30.432;2022-08-06T09:14:23;8.43;;;6.68;;
54979;SDS011;44101;50.462;30.432;2022-08-06T09:16:48;8.43;;;6.95;;
54979;SDS011;44101;50.462;30.432;2022-08-06T09:19:15;9.32;;;6.82;;
54979;SDS011;44101;50.462;30.432;2022-08-06T09:21:40;9.02;;;6.97;;
54979;SDS011;44101;50.462;30.432;2022-08-06T09:24:06;8.43;;;6.40;;
54979;SDS011;44101;50.462;30.432;2022-08-06T09:26:32;8.88;;;5.82;;
54979;SDS011;44101;50.462;30.432;2022-08-06T09:28:59;6.47;;;5.88;;
54979;SDS011;44101;50.462;30.432;2022-08-06T09:31:26;7.18;;;6.10;;
54979;SDS011;44101;50.462;30.432;2022-08-06T09:33:53;6.07;;;5.57;;
54979;SDS011;44101;50.462;30.432;2022-08-06T09:36:21;10.75;;;6.30;;
54979;SDS011;44101;50.462;30.432;2022-08-06T09:38:48;8.98;;;5.80;;
54979;SDS011;44101;50.462;30.432;2022-08-06T09:41:19;7.00;;;6.30;;
54979;SDS011;44101;50.462;30.432;2022-08-06T09:43:47;7.22;;;6.53;;
54979;SDS011;44101;50.462;30.432;2022-08-06T09:46:14;8.68;;;6.50;;
54979;SDS011;44101;50.462;30.432;2022-08-06T09:48:57;7.05;;;6.38;;
54979;SDS011;44101;50.462;30.432;2022-08-06T09:51:24;9.93;;;6.55;;
54979;SDS011;44101;50.462;30.432;2022-08-06T09:53:51;7.18;;;6.38;;
54979;SDS011;44101;50.462;30.432;2022-08-06T09:56:21;8.55;;;7.22;;
54979;SDS011;44101;50.462;30.432;2022-08-06T09:58:47;9.85;;;6.47;;
54979;SDS011;44101;50.462;30.432;2022-08-06T10:01:21;6.70;;;5.90;;
54979;SDS011;44101;50.462;30.432;2022-08-06T10:03:52;8.60;;;6.40;;
54979;SDS011;44101;50.462;30.432;2022-08-06T10:06:19;6.20;;;5.43;;
54979;SDS011;44101;50.462;30.432;2022-08-06T10:08:49;6.57;;;5.50;;
54979;SDS011;44101;50.462;30.432;2022-08-06T10:11:39;8.65;;;6.30;;
54979;SDS011;44101;50.462;30.432;2022-08-06T10:14:07;7.93;;;5.68;;
54979;SDS011;44101;50.462;30.432;2022-08-06T10:19:29;7.47;;;6.70;;
54979;SDS011;44101;50.462;30.432;2022-08-06T10:21:55;7.78;;;6.55;;
54979;SDS011;44101;50.462;30.432;2022-08-06T10:24:44;7.28;;;6.15;;
54979;SDS011;44101;50.462;30.432;2022-08-06T10:27:16;9.65;;;6.13;;
54979;SDS011;44101;50.462;30.432;2022-08-06T10:29:47;10.38;;;6.03;;
54979;SDS011;44101;50.462;30.432;2022-08-06T10:32:16;10.10;;;6.65;;
54979;SDS011;44101;50.462;30.432;2022-08-06T10:34:50;10.23;;;6.00;;
54979;SDS011;44101;50.462;30.432;2022-08-06T10:37:18;7.55;;;6.85;;
54979;SDS011;44101;50.462;30.432;2022-08-06T10:39:50;8.50;;;7.45;;
54979;SDS011;44101;50.462;30.432;2022-08-06T10:42:19;8.82;;;6.95;;
54979;SDS011;44101;50.462;30.432;2022-08-06T10:44:46;8.77;;;6.43;;
54979;SDS011;44101;50.462;30.432;2022-08-06T10:47:13;7.65;;;6.97;;
54979;SDS011;44101;50.462;30.432;2022-08-06T10:49:39;8.10;;;6.68;;
54979;SDS011;44101;50.462;30.432;2022-08-06T10:52:05;13.50;;;7.20;;
54979;SDS011;44101;50.462;30.432;2022-08-06T10:54:31;8.90;;;6.65;;
54979;SDS011;44101;50.462;30.432;2022-08-06T10:56:57;11.90;;;6.78;;
54979;SDS011;44101;50.462;30.432;2022-08-06T10:59:24;10.00;;;7.57;;
54979;SDS011;44101;50.462;30.432;2022-08-06T11:01:54;7.15;;;6.45;;
54979;SDS011;44101;50.462;30.432;2022-08-06T11:04:45;6.28;;;5.68;;
54979;SDS011;44101;50.462;30.432;2022-08-06T11:10:34;5.90;;;5.30;;
54979;SDS011;44101;50.462;30.432;2022-08-06T11:15:36;5.57;;;5.07;;
54979;SDS011;44101;50.462;30.432;2022-08-06T11:18:04;8.63;;;5.30;;
54979;SDS011;44101;50.462;30.432;2022-08-06T11:23:05;9.82;;;5.30;;
54979;SDS011;44101;50.462;30.432;2022-08-06T11:25:51;6.00;;;5.40;;
54979;SDS011;44101;50.462;30.432;2022-08-06T11:30:54;6.18;;;4.85;;
54979;SDS011;44101;50.462;30.432;2022-08-06T11:36:03;6.35;;;5.22;;
54979;SDS011;44101;50.462;30.432;2022-08-06T11:41:22;5.82;;;4.85;;
54979;SDS011;44101;50.462;30.432;2022-08-06T11:54:31;6.35;;;4.70;;
54979;SDS011;44101;50.462;30.432;2022-08-06T12:01:57;5.68;;;5.18;;
54979;SDS011;44101;50.462;30.432;2022-08-06T12:07:17;5.28;;;4.78;;
54979;SDS011;44101;50.462;30.432;2022-08-06T12:09:50;5.97;;;4.72;;
54979;SDS011;44101;50.462;30.432;2022-08-06T12:15:00;5.00;;;4.50;;
54979;SDS011;44101;50.462;30.432;2022-08-06T12:17:42;5.50;;;4.90;;
54979;SDS011;44101;50.462;30.432;2022-08-06T12:20:29;6.65;;;4.68;;
54979;SDS011;44101;50.462;30.432;2022-08-06T12:23:08;6.47;;;5.03;;
54979;SDS011;44101;50.462;30.432;2022-08-06T12:25:37;5.68;;;5.13;;
54979;SDS011;44101;50.462;30.432;2022-08-06T12:28:09;5.63;;;5.10;;
54979;SDS011;44101;50.462;30.432;2022-08-06T12:30:43;6.03;;;4.85;;
54979;SDS011;44101;50.462;30.432;2022-08-06T12:33:16;6.95;;;4.80;;
54979;SDS011;44101;50.462;30.432;2022-08-06T12:35:50;8.32;;;4.18;;
54979;SDS011;44101;50.462;30.432;2022-08-06T12:38:17;5.35;;;4.78;;
54979;SDS011;44101;50.462;30.432;2022-08-06T12:40:56;6.88;;;4.97;;
54979;SDS011;44101;50.462;30.432;2022-08-06T12:43:24;5.35;;;4.28;;
54979;SDS011;44101;50.462;30.432;2022-08-06T12:45:57;4.70;;;4.30;;
54979;SDS011;44101;50.462;30.432;2022-08-06T12:48:24;7.40;;;4.45;;
54979;SDS011;44101;50.462;30.432;2022-08-06T12:50:50;5.53;;;5.03;;
54979;SDS011;44101;50.462;30.432;2022-08-06T12:53:25;4.90;;;4.20;;
54979;SDS011;44101;50.462;30.432;2022-08-06T12:55:51;6.45;;;4.60;;
54979;SDS011;44101;50.462;30.432;2022-08-06T12:58:20;6.38;;;4.18;;
54979;SDS011;44101;50.462;30.432;2022-08-06T13:01:07;7.32;;;4.53;;
54979;SDS011;44101;50.462;30.432;2022-08-06T13:03:37;6.03;;;4.47;;
54979;SDS011;44101;50.462;30.432;2022-08-06T13:06:07;7.15;;;4.32;;
54979;SDS011;44101;50.462;30.432;2022-08-06T13:08:34;8.75;;;4.82;;
54979;SDS011;44101;50.462;30.432;2022-08-06T13:11:01;13.38;;;4.50;;
54979;SDS011;44101;50.462;30.432;2022-08-06T13:13:41;4.63;;;4.22;;
54979;SDS011;44101;50.462;30.432;2022-08-06T13:16:15;5.57;;;3.85;;
54979;SDS011;44101;50.462;30.432;2022-08-06T13:18:42;4.75;;;3.90;;
54979;SDS011;44101;50.462;30.432;2022-08-06T13:21:29;4.63;;;3.78;;
54979;SDS011;44101;50.462;30.432;2022-08-06T13:23:55;6.65;;;4.10;;
54979;SDS011;44101;50.462;30.432;2022-08-06T13:26:22;4.13;;;3.75;;
54979;SDS011;44101;50.462;30.432;2022-08-06T13:31:42;4.50;;;4.10;;
54979;SDS011;44101;50.462;30.432;2022-08-06T13:34:10;5.15;;;4.63;;
54979;SDS011;44101;50.462;30.432;2022-08-06T13:36:41;9.98;;;6.35;;
54979;SDS011;44101;50.462;30.432;2022-08-06T13:42:05;6.40;;;4.13;;
54979;SDS011;44101;50.462;30.432;2022-08-06T13:44:34;4.55;;;3.80;;
54979;SDS011;44101;50.462;30.432;2022-08-06T13:47:03;6.20;;;3.60;;
54979;SDS011;44101;50.462;30.432;2022-08-06T13:49:31;4.72;;;3.80;;
54979;SDS011;44101;50.462;30.432;2022-08-06T13:51:58;3.78;;;3.45;;
54979;SDS011;44101;50.462;30.432;2022-08-06T13:54:25;4.00;;;3.60;;
54979;SDS011;44101;50.462;30.432;2022-08-06T13:56:52;4.55;;;3.47;;
54979;SDS011;44101;50.462;30.432;2022-08-06T13:59:19;3.85;;;3.50;;
54979;SDS011;44101;50.462;30.432;2022-08-06T14:01:47;3.88;;;3.50;;
54979;SDS011;44101;50.462;30.432;2022-08-06T14:04:13;4.00;;;3.70;;
54979;SDS011;44101;50.462;30.432;2022-08-06T14:06:41;3.67;;;3.38;;
54979;SDS011;44101;50.462;30.432;2022-08-06T14:09:07;5.82;;;3.67;;
54979;SDS011;44101;50.462;30.432;2022-08-06T14:11:34;5.32;;;3.50;;
54979;SDS011;44101;50.462;30.432;2022-08-06T14:14:00;4.45;;;3.58;;
54979;SDS011;44101;50.462;30.432;2022-08-06T14:16:25;5.13;;;3.67;;
54979;SDS011;44101;50.462;30.432;2022-08-06T14:18:51;3.90;;;3.60;;
54979;SDS011;44101;50.462;30.432;2022-08-06T14:21:17;5.75;;;3.63;;
54979;SDS011;44101;50.462;30.432;2022-08-06T14:23:43;5.63;;;3.47;;
54979;SDS011;44101;50.462;30.432;2022-08-06T14:26:09;4.35;;;3.60;;
54979;SDS011;44101;50.462;30.432;2022-08-06T14:28:34;3.90;;;3.50;;
54979;SDS011;44101;50.462;30.432;2022-08-06T14:31:00;6.25;;;3.55;;
54979;SDS011;44101;50.462;30.432;2022-08-06T14:33:26;4.18;;;3.75;;
54979;SDS011;44101;50.462;30.432;2022-08-06T14:35:52;5.35;;;3.40;;
54979;SDS011;44101;50.462;30.432;2022-08-06T14:38:21;3.72;;;3.42;;
54979;SDS011;44101;50.462;30.432;2022-08-06T14:40:46;3.75;;;3.35;;
54979;SDS011;44101;50.462;30.432;2022-08-06T14:43:30;3.90;;;3.58;;
54979;SDS011;44101;50.462;30.432;2022-08-06T14:46:15;7.78;;;3.70;;
54979;SDS011;44101;50.462;30.432;2022-08-06T14:48:40;4.22;;;3.83;;
54979;SDS011;44101;50.462;30.432;2022-08-06T14:51:06;4.13;;;3.45;;
54979;SDS011;44101;50.462;30.432;2022-08-06T14:53:32;3.90;;;2.97;;
54979;SDS011;44101;50.462;30.432;2022-08-06T14:55:58;4.13;;;3.42;;
54979;SDS011;44101;50.462;30.432;2022-08-06T14:58:23;7.40;;;3.65;;
54979;SDS011;44101;50.462;30.432;2022-08-06T15:00:49;6.60;;;3.42;;
54979;SDS011;44101;50.462;30.432;2022-08-06T15:03:17;5.90;;;3.67;;
54979;SDS011;44101;50.462;30.432;2022-08-06T15:05:43;5.65;;;3.75;;
54979;SDS011;44101;50.462;30.432;2022-08-06T15:08:11;9.80;;;6.30;;
54979;SDS011;44101;50.462;30.432;2022-08-06T15:10:37;7.32;;;5.03;;
54979;SDS011;44101;50.462;30.432;2022-08-06T15:13:03;7.55;;;3.42;;
54979;SDS011;44101;50.462;30.432;2022-08-06T15:15:30;3.75;;;3.25;;
54979;SDS011;44101;50.462;30.432;2022-08-06T15:17:56;3.47;;;3.15;;
54979;SDS011;44101;50.462;30.432;2022-08-06T15:20:22;7.88;;;3.88;;
54979;SDS011;44101;50.462;30.432;2022-08-06T15:22:50;4.28;;;3.40;;
54979;SDS011;44101;50.462;30.432;2022-08-06T15:25:16;4.88;;;3.35;;
54979;SDS011;44101;50.462;30.432;2022-08-06T15:27:43;6.03;;;3.65;;
54979;SDS011;44101;50.462;30.432;2022-08-06T15:30:10;7.40;;;3.97;;
54979;SDS011;44101;50.462;30.432;2022-08-06T15:32:36;5.15;;;3.15;;
54979;SDS011;44101;50.462;30.432;2022-08-06T15:35:02;6.13;;;3.42;;
54979;SDS011;44101;50.462;30.432;2022-08-06T15:37:28;5.85;;;3.63;;
54979;SDS011;44101;50.462;30.432;2022-08-06T15:39:54;3.63;;;3.33;;
54979;SDS011;44101;50.462;30.432;2022-08-06T15:42:20;3.90;;;3.60;;
54979;SDS011;44101;50.462;30.432;2022-08-06T15:44:46;5.03;;;3.10;;